createdAt,value
2017-07-11T00:02:11.069Z,19.10
2017-07-11T00:04:39.396Z,19.00
2017-07-11T00:07:15.550Z,19.00
2017-07-11T00:09:43.894Z,18.90
2017-07-11T00:12:12.996Z,18.90
2017-07-11T00:14:42.105Z,18.90
2017-07-11T00:17:10.463Z,18.80
2017-07-11T00:19:39.533Z,18.90
2017-07-11T00:22:07.859Z,18.80
2017-07-11T00:24:36.203Z,18.80
2017-07-11T00:27:04.513Z,18.80
2017-07-11T00:29:32.865Z,18.80
2017-07-11T00:32:01.192Z,18.90
2017-07-11T00:34:29.661Z,18.80
2017-07-11T00:36:57.978Z,18.80
2017-07-11T00:39:26.290Z,18.80
2017-07-11T00:41:55.415Z,18.60
2017-07-11T00:44:23.759Z,18.60
2017-07-11T00:46:52.115Z,18.50
2017-07-11T00:49:20.438Z,18.50
2017-07-11T00:51:48.787Z,18.50
2017-07-11T00:54:17.881Z,18.50
2017-07-11T00:56:48.184Z,18.50
2017-07-11T00:59:16.539Z,18.50
2017-07-11T01:01:44.835Z,18.50
2017-07-11T01:04:13.145Z,18.40
2017-07-11T01:06:41.486Z,18.40
2017-07-11T01:09:09.805Z,18.30
2017-07-11T01:11:38.907Z,18.20
2017-07-11T01:14:07.218Z,18.10
2017-07-11T01:16:35.538Z,18.00
2017-07-11T01:19:03.880Z,18.10
2017-07-11T01:21:32.213Z,18.10
2017-07-11T01:24:01.280Z,18.00
2017-07-11T01:26:29.608Z,18.00
2017-07-11T01:28:57.921Z,17.90
2017-07-11T01:31:26.250Z,17.70
2017-07-11T01:33:55.397Z,17.60
2017-07-11T01:36:34.581Z,17.60
2017-07-11T01:39:02.913Z,17.50
2017-07-11T01:41:31.215Z,17.40
2017-07-11T01:43:59.573Z,17.40
2017-07-11T01:46:27.913Z,17.30
2017-07-11T01:48:56.253Z,17.20
2017-07-11T01:51:25.347Z,17.30
2017-07-11T01:53:54.433Z,17.20
2017-07-11T01:56:22.792Z,17.20
2017-07-11T01:58:51.101Z,17.20
2017-07-11T02:01:20.215Z,17.10
2017-07-11T02:03:48.550Z,17.10
2017-07-11T02:06:16.886Z,17.00
2017-07-11T02:08:45.235Z,17.00
2017-07-11T02:11:13.702Z,17.00
2017-07-11T02:13:42.004Z,17.10
2017-07-11T02:16:10.306Z,17.10
2017-07-11T02:18:38.630Z,17.10
2017-07-11T02:21:06.959Z,17.00
2017-07-11T02:23:35.275Z,17.00
2017-07-11T02:26:03.596Z,17.00
2017-07-11T02:28:31.911Z,16.90
2017-07-11T02:31:00.375Z,16.80
2017-07-11T02:33:28.689Z,16.70
2017-07-11T02:35:56.985Z,16.70
2017-07-11T02:38:26.080Z,16.60
2017-07-11T02:40:55.150Z,16.70
2017-07-11T02:43:23.490Z,16.70
2017-07-11T02:45:51.827Z,16.70
2017-07-11T02:48:20.908Z,16.60
2017-07-11T02:50:49.237Z,16.60
2017-07-11T02:53:17.548Z,16.70
2017-07-11T02:55:45.922Z,16.60
2017-07-11T02:58:14.218Z,16.60
2017-07-11T03:03:48.805Z,16.40
2017-07-11T03:06:17.122Z,16.40
2017-07-11T03:08:46.335Z,16.40
2017-07-11T03:11:14.646Z,16.40
2017-07-11T03:13:43.729Z,16.30
2017-07-11T03:16:12.835Z,16.30
2017-07-11T03:18:41.941Z,16.40
2017-07-11T03:21:10.240Z,16.40
2017-07-11T03:23:38.535Z,16.30
2017-07-11T03:26:06.858Z,16.30
2017-07-11T03:28:35.917Z,16.30
2017-07-11T03:31:04.261Z,16.30
2017-07-11T03:33:32.603Z,16.30
2017-07-11T03:36:01.659Z,16.40
2017-07-11T03:38:30.141Z,16.40
2017-07-11T03:40:58.436Z,16.40
2017-07-11T03:43:26.735Z,16.40
2017-07-11T03:45:55.828Z,16.40
2017-07-11T03:48:24.893Z,16.40
2017-07-11T03:50:53.253Z,16.40
2017-07-11T03:53:21.577Z,16.40
2017-07-11T03:55:50.681Z,16.40
2017-07-11T03:58:19.758Z,16.50
2017-07-11T04:00:48.117Z,16.40
2017-07-11T04:03:16.408Z,16.40
2017-07-11T04:05:44.707Z,16.40
2017-07-11T04:08:13.017Z,16.40
2017-07-11T04:10:41.316Z,16.50
2017-07-11T04:13:09.782Z,16.40
2017-07-11T04:15:38.191Z,16.50
2017-07-11T04:18:06.576Z,16.50
2017-07-11T04:20:34.921Z,16.40
2017-07-11T04:23:03.236Z,16.40
2017-07-11T04:25:31.624Z,16.40
2017-07-11T04:27:59.993Z,16.40
2017-07-11T04:30:28.349Z,16.40
2017-07-11T04:32:56.696Z,16.50
2017-07-11T04:35:25.045Z,16.50
2017-07-11T04:37:53.410Z,16.50
2017-07-11T04:40:21.734Z,16.40
2017-07-11T04:42:50.169Z,16.50
2017-07-11T04:45:18.465Z,16.50
2017-07-11T04:47:47.541Z,16.40
2017-07-11T04:50:15.883Z,16.40
2017-07-11T04:52:44.197Z,16.50
2017-07-11T04:55:12.551Z,16.50
2017-07-11T04:57:40.904Z,16.50
2017-07-11T05:03:06.506Z,16.50
2017-07-11T05:05:34.810Z,16.50
2017-07-11T05:08:03.133Z,16.60
2017-07-11T05:10:31.487Z,16.60
2017-07-11T05:12:59.825Z,16.60
2017-07-11T05:15:28.189Z,16.50
2017-07-11T05:17:57.281Z,16.60
2017-07-11T05:20:26.381Z,16.60
2017-07-11T05:22:55.465Z,16.50
2017-07-11T05:25:24.574Z,16.30
2017-07-11T05:27:53.657Z,16.30
2017-07-11T05:30:22.079Z,16.30
2017-07-11T05:32:50.406Z,16.30
2017-07-11T05:35:18.749Z,16.10
2017-07-11T05:37:47.080Z,16.10
2017-07-11T05:40:16.180Z,16.20
2017-07-11T05:42:45.248Z,16.30
2017-07-11T05:45:23.570Z,16.30
2017-07-11T05:47:52.371Z,16.30
2017-07-11T05:50:20.805Z,16.20
2017-07-11T05:52:49.263Z,16.20
2017-07-11T05:55:17.725Z,16.20
2017-07-11T05:57:46.135Z,16.20
2017-07-11T06:00:14.817Z,16.30
2017-07-11T06:02:43.160Z,16.40
2017-07-11T06:05:12.694Z,16.30
2017-07-11T06:07:41.234Z,16.30
2017-07-11T06:10:09.629Z,16.30
2017-07-11T06:12:38.758Z,16.30
2017-07-11T06:15:07.112Z,16.30
2017-07-11T06:17:35.651Z,16.30
2017-07-11T06:20:05.179Z,16.30
2017-07-11T06:22:33.572Z,16.20
2017-07-11T06:25:02.721Z,16.30
2017-07-11T06:30:31.231Z,16.30
2017-07-11T06:32:59.587Z,16.30
2017-07-11T06:35:27.914Z,16.30
2017-07-11T06:37:56.232Z,16.20
2017-07-11T06:40:24.597Z,16.30
2017-07-11T06:42:52.936Z,16.30
2017-07-11T06:45:21.273Z,16.30
2017-07-11T06:47:49.645Z,16.40
2017-07-11T06:50:17.959Z,16.40
2017-07-11T06:52:46.265Z,16.50
2017-07-11T06:55:15.406Z,16.60
2017-07-11T06:57:43.747Z,16.50
2017-07-11T07:00:12.114Z,16.70
2017-07-11T07:02:41.202Z,16.90
2017-07-11T07:05:10.297Z,17.00
2017-07-11T07:07:38.614Z,17.00
2017-07-11T07:10:06.961Z,17.00
2017-07-11T07:12:36.034Z,17.10
2017-07-11T07:15:04.383Z,17.10
2017-07-11T07:17:32.711Z,17.10
2017-07-11T07:20:01.781Z,17.40
2017-07-11T07:22:30.114Z,17.40
2017-07-11T07:24:58.467Z,17.40
2017-07-11T07:27:27.565Z,17.70
2017-07-11T07:29:55.879Z,17.60
2017-07-11T07:32:24.216Z,17.70
2017-07-11T07:34:53.291Z,18.00
2017-07-11T07:37:21.625Z,18.00
2017-07-11T07:39:49.928Z,18.00
2017-07-11T07:42:18.274Z,18.20
2017-07-11T07:44:46.618Z,18.20
2017-07-11T07:47:14.956Z,18.30
2017-07-11T07:49:43.315Z,18.60
2017-07-11T07:52:11.676Z,18.70
2017-07-11T07:54:39.995Z,18.60
2017-07-11T07:57:08.296Z,18.60
2017-07-11T07:59:36.645Z,18.70
2017-07-11T08:02:04.988Z,18.70
2017-07-11T08:04:33.963Z,18.80
2017-07-11T08:07:02.305Z,19.00
2017-07-11T08:09:30.614Z,18.80
2017-07-11T08:11:58.948Z,18.80
2017-07-11T08:14:27.308Z,18.90
2017-07-11T08:16:55.764Z,19.10
2017-07-11T08:19:24.079Z,19.30
2017-07-11T08:22:09.319Z,19.30
2017-07-11T08:24:37.673Z,19.60
2017-07-11T08:27:06.758Z,19.50
2017-07-11T08:29:35.083Z,19.50
2017-07-11T08:32:03.442Z,19.60
2017-07-11T08:34:31.765Z,19.60
2017-07-11T08:37:00.141Z,19.70
2017-07-11T08:39:28.498Z,19.70
2017-07-11T08:41:56.806Z,19.70
2017-07-11T08:44:25.167Z,19.80
2017-07-11T08:46:53.477Z,20.00
2017-07-11T08:49:21.807Z,20.10
2017-07-11T08:51:50.153Z,20.40
2017-07-11T08:54:18.458Z,20.60
2017-07-11T08:56:46.785Z,20.70
2017-07-11T09:05:09.800Z,20.60
2017-07-11T09:07:38.121Z,20.60
2017-07-11T09:10:06.460Z,20.60
2017-07-11T09:12:35.609Z,20.60
2017-07-11T09:15:03.966Z,20.60
2017-07-11T09:17:32.331Z,20.70
2017-07-11T09:20:00.654Z,20.90
2017-07-11T09:22:29.000Z,21.20
2017-07-11T09:24:57.345Z,21.40
2017-07-11T09:27:25.660Z,21.40
2017-07-11T09:29:54.014Z,21.60
2017-07-11T09:32:32.113Z,21.70
2017-07-11T09:35:01.243Z,21.90
2017-07-11T09:37:29.566Z,21.90
2017-07-11T09:39:57.910Z,21.90
2017-07-11T09:42:26.225Z,21.60
2017-07-11T09:44:54.565Z,21.60
2017-07-11T09:47:22.889Z,21.40
2017-07-11T09:49:51.977Z,21.60
2017-07-11T09:52:20.332Z,21.60
2017-07-11T09:54:48.645Z,21.80
2017-07-11T09:57:17.759Z,22.00
2017-07-11T09:59:46.704Z,22.00
2017-07-11T10:02:15.081Z,22.10
2017-07-11T10:04:43.402Z,22.10
2017-07-11T10:07:11.758Z,22.20
2017-07-11T10:09:40.092Z,21.80
2017-07-11T10:12:08.444Z,21.40
2017-07-11T10:14:36.767Z,21.70
2017-07-11T10:17:05.111Z,22.20
2017-07-11T10:19:33.457Z,22.50
2017-07-11T10:22:03.020Z,22.70
2017-07-11T10:24:31.414Z,22.70
2017-07-11T10:26:59.754Z,22.60
2017-07-11T10:29:28.115Z,22.60
2017-07-11T10:31:56.413Z,22.80
2017-07-11T10:34:24.757Z,22.90
2017-07-11T10:36:53.844Z,22.60
2017-07-11T10:39:22.953Z,22.40
2017-07-11T10:41:52.036Z,22.50
2017-07-11T10:44:21.125Z,22.50
2017-07-11T10:46:49.474Z,22.50
2017-07-11T10:49:17.830Z,22.70
2017-07-11T10:51:46.137Z,22.60
2017-07-11T10:54:14.465Z,22.30
2017-07-11T10:56:42.841Z,22.50
2017-07-11T10:59:11.166Z,22.70
2017-07-11T11:01:39.510Z,22.90
2017-07-11T11:04:07.845Z,23.20
2017-07-11T11:06:36.157Z,23.50
2017-07-11T11:09:04.481Z,23.30
2017-07-11T11:11:32.800Z,23.50
2017-07-11T11:14:01.908Z,23.60
2017-07-11T11:16:30.261Z,23.60
2017-07-11T11:18:59.396Z,23.50
2017-07-11T11:21:27.795Z,23.50
2017-07-11T11:23:56.159Z,23.50
2017-07-11T11:26:24.516Z,23.40
2017-07-11T11:28:52.867Z,23.40
2017-07-11T11:31:21.983Z,23.50
2017-07-11T11:33:51.102Z,23.40
2017-07-11T11:36:19.432Z,23.40
2017-07-11T11:38:47.786Z,23.50
2017-07-11T11:41:16.193Z,23.40
2017-07-11T11:43:45.697Z,23.20
2017-07-11T11:46:14.829Z,23.00
2017-07-11T11:48:43.184Z,22.90
2017-07-11T11:51:12.320Z,23.10
2017-07-11T11:53:40.656Z,23.10
2017-07-11T11:56:09.781Z,23.50
2017-07-11T11:58:38.168Z,23.40
2017-07-11T12:01:06.574Z,23.60
2017-07-11T12:03:36.635Z,23.80
2017-07-11T12:06:05.742Z,24.00
2017-07-11T12:08:34.157Z,23.90
2017-07-11T12:11:02.514Z,23.80
2017-07-11T12:13:30.859Z,24.00
2017-07-11T12:16:00.022Z,24.20
2017-07-11T12:18:28.399Z,24.20
2017-07-11T12:20:56.685Z,24.30
2017-07-11T12:23:25.035Z,24.50
2017-07-11T12:25:54.460Z,24.60
2017-07-11T12:28:28.982Z,24.50
2017-07-11T12:30:58.176Z,24.70
2017-07-11T12:33:26.581Z,24.70
2017-07-11T12:35:56.199Z,24.80
2017-07-11T12:38:25.678Z,25.00
2017-07-11T12:40:54.152Z,25.00
2017-07-11T12:43:42.131Z,25.10
2017-07-11T12:46:10.603Z,25.10
2017-07-11T12:48:39.730Z,25.30
2017-07-11T12:51:08.141Z,25.30
2017-07-11T12:53:36.539Z,25.10
2017-07-11T12:56:04.876Z,25.00
2017-07-11T12:58:39.977Z,25.10
2017-07-11T13:01:09.071Z,25.20
2017-07-11T13:03:38.290Z,25.50
2017-07-11T13:06:12.700Z,25.50
2017-07-11T13:08:41.161Z,25.30
2017-07-11T13:11:15.302Z,25.30
2017-07-11T13:13:44.392Z,25.20
2017-07-11T13:16:20.494Z,25.20
2017-07-11T13:18:48.810Z,25.20
2017-07-11T13:21:17.161Z,25.10
2017-07-11T13:24:03.514Z,25.00
2017-07-11T13:26:32.324Z,25.00
2017-07-11T13:29:00.748Z,25.20
2017-07-11T13:31:29.095Z,25.30
2017-07-11T13:33:57.397Z,25.60
2017-07-11T13:36:25.766Z,25.70
2017-07-11T13:38:54.116Z,25.60
2017-07-11T13:41:22.489Z,25.80
2017-07-11T13:43:50.802Z,26.00
2017-07-11T13:46:19.153Z,26.10
2017-07-11T13:48:47.501Z,26.10
2017-07-11T13:51:16.609Z,26.20
2017-07-11T13:53:44.959Z,26.20
2017-07-11T13:56:14.075Z,26.20
2017-07-11T13:58:42.421Z,26.20
2017-07-11T14:01:10.735Z,26.20
2017-07-11T14:03:39.157Z,26.50
2017-07-11T14:06:07.482Z,26.60
2017-07-11T14:08:36.624Z,26.60
2017-07-11T14:11:04.942Z,26.60
2017-07-11T14:13:34.098Z,26.30
2017-07-11T14:16:02.459Z,26.30
2017-07-11T14:18:30.791Z,26.10
2017-07-11T14:20:59.157Z,26.30
2017-07-11T14:23:27.524Z,26.70
2017-07-11T14:25:56.189Z,26.90
2017-07-11T14:28:24.517Z,26.90
2017-07-11T14:30:53.635Z,26.90
2017-07-11T14:33:21.989Z,26.80
2017-07-11T14:35:51.081Z,26.50
2017-07-11T14:38:19.408Z,26.50
2017-07-11T14:40:47.798Z,26.50
2017-07-11T14:43:16.123Z,26.40
2017-07-11T14:45:45.193Z,25.70
2017-07-11T14:48:13.563Z,25.70
2017-07-11T14:50:41.887Z,25.40
2017-07-11T14:53:10.223Z,25.10
2017-07-11T14:55:38.579Z,24.70
2017-07-11T14:58:06.934Z,24.60
2017-07-11T15:00:35.258Z,24.30
2017-07-11T15:03:03.604Z,24.20
2017-07-11T15:05:31.977Z,24.00
2017-07-11T15:08:00.305Z,23.90
2017-07-11T15:10:28.659Z,23.80
2017-07-11T15:12:56.971Z,23.80
2017-07-11T15:15:25.314Z,23.70
2017-07-11T15:17:53.631Z,23.50
2017-07-11T15:20:22.754Z,22.40
2017-07-11T15:22:51.095Z,22.30
2017-07-11T15:25:19.445Z,22.00
2017-07-11T15:27:47.793Z,21.60
2017-07-11T15:30:16.151Z,21.20
2017-07-11T15:32:45.250Z,20.70
2017-07-11T15:35:13.617Z,20.70
2017-07-11T15:37:42.698Z,20.60
2017-07-11T15:40:11.068Z,20.60
2017-07-11T15:42:39.416Z,20.70
2017-07-11T15:45:07.791Z,20.80
2017-07-11T15:47:36.119Z,21.10
2017-07-11T15:50:04.493Z,21.30
2017-07-11T15:52:32.815Z,21.90
2017-07-11T15:55:01.126Z,22.40
2017-07-11T15:57:29.478Z,23.40
2017-07-11T15:59:58.108Z,24.70
2017-07-11T16:02:26.457Z,25.90
2017-07-11T16:04:54.773Z,26.90
2017-07-11T16:07:23.894Z,28.60
2017-07-11T16:09:52.208Z,28.60
2017-07-11T16:12:20.562Z,29.40
2017-07-11T16:14:48.910Z,30.00
2017-07-11T16:17:17.989Z,30.90
2017-07-11T16:19:46.338Z,30.90
2017-07-11T16:22:14.667Z,31.00
2017-07-11T16:24:47.694Z,29.50
2017-07-11T16:27:16.066Z,29.40
2017-07-11T16:29:49.208Z,29.10
2017-07-11T16:32:17.550Z,29.40
2017-07-11T16:34:45.910Z,29.70
2017-07-11T16:37:18.724Z,29.70
2017-07-11T16:39:47.089Z,29.50
2017-07-11T16:42:17.882Z,29.20
2017-07-11T16:44:46.271Z,29.10
2017-07-11T16:47:14.660Z,29.20
2017-07-11T16:49:43.005Z,29.50
2017-07-11T16:52:12.150Z,29.60
2017-07-11T16:54:40.516Z,29.60
2017-07-11T17:00:04.168Z,30.10
2017-07-11T17:02:33.257Z,29.60
2017-07-11T17:05:02.368Z,28.80
2017-07-11T17:07:30.706Z,28.80
2017-07-11T17:09:59.043Z,28.00
2017-07-11T17:12:28.007Z,27.40
2017-07-11T17:17:54.727Z,26.40
2017-07-11T17:20:23.087Z,25.90
2017-07-11T17:22:53.074Z,25.60
2017-07-11T17:25:21.442Z,25.20
2017-07-11T17:27:50.699Z,24.40
2017-07-11T17:30:18.999Z,24.40
2017-07-11T17:32:47.311Z,24.10
2017-07-11T17:35:15.709Z,23.90
2017-07-11T17:37:44.994Z,23.40
2017-07-11T17:40:13.338Z,23.40
2017-07-11T17:42:42.361Z,23.30
2017-07-11T17:45:10.749Z,23.20
2017-07-11T17:47:39.082Z,23.10
2017-07-11T17:50:07.436Z,22.90
2017-07-11T17:52:35.774Z,22.80
2017-07-11T17:55:04.128Z,22.70
2017-07-11T17:57:32.508Z,22.70
2017-07-11T18:00:01.645Z,22.70
2017-07-11T18:02:29.953Z,22.70
2017-07-11T18:04:58.283Z,22.70
2017-07-11T18:07:26.648Z,22.60
2017-07-11T18:09:55.084Z,22.60
2017-07-11T18:12:24.237Z,22.40
2017-07-11T18:14:52.986Z,22.30
2017-07-11T18:17:21.453Z,22.20
2017-07-11T18:19:49.797Z,22.10
2017-07-11T18:22:19.347Z,21.90
2017-07-11T18:24:48.799Z,21.70
2017-07-11T18:27:17.174Z,21.40
2017-07-11T18:29:45.480Z,21.40
2017-07-11T18:32:13.845Z,21.30
2017-07-11T18:34:42.206Z,21.20
2017-07-11T18:37:10.533Z,21.10
2017-07-11T18:39:38.978Z,21.10
2017-07-11T18:42:07.332Z,21.00
2017-07-11T18:44:35.670Z,21.00
2017-07-11T18:47:04.032Z,20.80
2017-07-11T18:49:32.366Z,20.70
2017-07-11T18:52:01.426Z,20.70
2017-07-11T18:54:29.772Z,20.70
2017-07-11T18:56:58.087Z,20.60
2017-07-11T18:59:26.462Z,20.50
2017-07-11T19:01:54.914Z,20.50
2017-07-11T19:04:23.268Z,20.40
2017-07-11T19:06:51.685Z,20.40
2017-07-11T19:09:20.072Z,20.30
2017-07-11T19:11:48.418Z,20.20
2017-07-11T19:14:16.839Z,20.20
2017-07-11T19:16:45.409Z,20.10
2017-07-11T19:19:13.778Z,20.10
2017-07-11T19:21:42.283Z,20.00
2017-07-11T19:24:10.607Z,20.00
2017-07-11T19:26:38.967Z,19.90
2017-07-11T19:29:08.108Z,19.80
2017-07-11T19:31:36.456Z,19.80
2017-07-11T19:34:04.829Z,19.80
2017-07-11T19:36:33.207Z,19.80
2017-07-11T19:39:02.301Z,19.70
2017-07-11T19:41:30.634Z,19.60
2017-07-11T19:43:59.505Z,19.60
2017-07-11T19:46:27.852Z,19.50
2017-07-11T19:48:56.190Z,19.50
2017-07-11T19:51:24.587Z,19.50
2017-07-11T19:53:52.936Z,19.50
2017-07-11T19:56:21.285Z,19.40
2017-07-11T19:58:49.794Z,19.30
2017-07-11T20:01:18.122Z,19.30
2017-07-11T20:03:47.212Z,19.20
2017-07-11T20:06:16.326Z,19.10
2017-07-11T20:08:44.713Z,19.10
2017-07-11T20:11:13.061Z,19.00
2017-07-11T20:13:42.171Z,19.20
2017-07-11T20:16:11.249Z,19.30
2017-07-11T20:18:39.556Z,19.20
2017-07-11T20:21:07.892Z,19.20
2017-07-11T20:26:37.497Z,19.10
2017-07-11T20:29:05.886Z,19.20
2017-07-11T20:31:34.247Z,19.30
2017-07-11T20:34:02.541Z,19.20
2017-07-11T20:36:30.912Z,19.20
2017-07-11T20:38:59.259Z,19.20
2017-07-11T20:41:27.593Z,19.20
2017-07-11T20:43:55.925Z,19.20
2017-07-11T20:46:24.262Z,19.10
2017-07-11T20:48:53.370Z,18.90
2017-07-11T20:51:22.461Z,19.00
2017-07-11T20:53:51.560Z,18.90
2017-07-11T20:56:20.620Z,19.00
2017-07-11T20:58:49.838Z,18.90
2017-07-11T21:01:19.190Z,19.00
2017-07-11T21:03:47.541Z,18.90
2017-07-11T21:06:15.885Z,19.00
2017-07-11T21:08:44.202Z,19.00
2017-07-11T21:11:12.555Z,18.90
2017-07-11T21:13:40.873Z,18.90
2017-07-11T21:16:09.221Z,18.90
2017-07-11T21:18:38.365Z,18.80
2017-07-11T21:21:06.712Z,18.80
2017-07-11T21:23:35.081Z,18.90
2017-07-11T21:26:03.635Z,18.70
2017-07-11T21:28:32.761Z,18.70
2017-07-11T21:31:01.071Z,18.70
2017-07-11T21:33:29.374Z,18.80
2017-07-11T21:35:57.845Z,18.90
2017-07-11T21:38:26.190Z,18.80
2017-07-11T21:40:54.543Z,18.90
2017-07-11T21:43:23.671Z,18.80
2017-07-11T21:45:52.137Z,18.80
2017-07-11T21:48:20.478Z,18.80
2017-07-11T21:50:49.576Z,18.80
2017-07-11T21:53:18.725Z,18.70
2017-07-11T21:55:47.105Z,18.70
2017-07-11T21:58:15.472Z,18.60
2017-07-11T22:00:43.802Z,18.70
2017-07-11T22:03:12.124Z,18.60
2017-07-11T22:05:40.497Z,18.60
2017-07-11T22:08:08.874Z,18.60
2017-07-11T22:10:37.260Z,18.60
2017-07-11T22:13:05.656Z,18.50
2017-07-11T22:15:33.980Z,18.50
2017-07-11T22:18:03.151Z,18.50
2017-07-11T22:20:31.537Z,18.40
2017-07-11T22:22:59.929Z,18.50
2017-07-11T22:25:28.257Z,18.50
2017-07-11T22:27:56.617Z,18.40
2017-07-11T22:30:25.019Z,18.30
2017-07-11T22:32:53.392Z,18.30
2017-07-11T22:35:21.745Z,18.30
2017-07-11T22:37:50.876Z,18.30
2017-07-11T22:40:19.249Z,18.30
2017-07-11T22:42:47.591Z,18.20
2017-07-11T22:45:15.960Z,18.10
2017-07-11T22:47:45.060Z,18.10
2017-07-11T22:50:14.175Z,18.20
2017-07-11T22:52:42.550Z,18.10
2017-07-11T22:55:10.945Z,18.00
2017-07-11T22:57:39.338Z,18.00
2017-07-11T23:00:07.697Z,18.00
2017-07-11T23:02:36.162Z,18.00
2017-07-11T23:05:04.484Z,18.00
2017-07-11T23:07:32.858Z,18.00
2017-07-11T23:10:01.236Z,17.90
2017-07-11T23:12:29.594Z,17.80
2017-07-11T23:14:57.937Z,17.80
2017-07-11T23:17:26.323Z,17.80
2017-07-11T23:19:55.456Z,17.80
2017-07-11T23:22:23.794Z,17.70
2017-07-11T23:24:52.957Z,17.60
2017-07-11T23:27:21.322Z,17.60
2017-07-11T23:29:49.658Z,17.60
2017-07-11T23:32:18.025Z,17.70
2017-07-11T23:34:46.471Z,17.70
2017-07-11T23:37:14.826Z,17.80
2017-07-11T23:39:43.166Z,17.80
2017-07-11T23:42:12.265Z,17.70
2017-07-11T23:44:40.591Z,17.70
2017-07-11T23:47:08.943Z,17.80
2017-07-11T23:49:37.248Z,17.60
2017-07-11T23:52:05.599Z,17.60
2017-07-11T23:54:33.951Z,17.60
2017-07-11T23:57:03.024Z,17.60
2017-07-11T23:59:31.379Z,17.60
